sensor_id;sensor_type;location;lat;lon;timestamp;pressure;altitude;pressure_sealevel;temperature;humidity
36630;BME280;36256;42.154;23.002;2022-10-16T00:02:17;97817.81;;;10.44;94.16
36630;BME280;36256;42.154;23.002;2022-10-16T00:04:43;97827.09;;;10.41;94.73
36630;BME280;36256;42.154;23.002;2022-10-16T00:07:10;97828.44;;;10.37;94.48
36630;BME280;36256;42.154;23.002;2022-10-16T00:09:37;97837.13;;;10.42;94.04
36630;BME280;36256;42.154;23.002;2022-10-16T00:12:03;97830.00;;;10.38;93.91
36630;BME280;36256;42.154;23.002;2022-10-16T00:14:32;97839.06;;;10.29;94.68
36630;BME280;36256;42.154;23.002;2022-10-16T00:16:59;97846.06;;;10.21;94.33
36630;BME280;36256;42.154;23.002;2022-10-16T00:19:25;97849.47;;;10.12;96.58
36630;BME280;36256;42.154;23.002;2022-10-16T00:21:52;97851.66;;;10.05;97.16
36630;BME280;36256;42.154;23.002;2022-10-16T00:24:19;97850.22;;;9.97;97.98
36630;BME280;36256;42.154;23.002;2022-10-16T00:26:49;97844.25;;;9.95;98.63
36630;BME280;36256;42.154;23.002;2022-10-16T00:29:16;97855.81;;;9.97;97.71
36630;BME280;36256;42.154;23.002;2022-10-16T00:31:42;97850.59;;;9.99;96.84
36630;BME280;36256;42.154;23.002;2022-10-16T00:34:09;97847.97;;;9.92;95.56
36630;BME280;36256;42.154;23.002;2022-10-16T00:36:35;97846.63;;;9.80;95.22
36630;BME280;36256;42.154;23.002;2022-10-16T00:39:03;97863.63;;;9.54;96.73
36630;BME280;36256;42.154;23.002;2022-10-16T00:41:30;97858.13;;;9.30;99.05
36630;BME280;36256;42.154;23.002;2022-10-16T00:43:58;97853.13;;;9.02;100.00
36630;BME280;36256;42.154;23.002;2022-10-16T00:46:35;97863.09;;;8.84;100.00
36630;BME280;36256;42.154;23.002;2022-10-16T00:49:05;97855.38;;;8.68;100.00
36630;BME280;36256;42.154;23.002;2022-10-16T00:51:51;97858.06;;;8.75;100.00
36630;BME280;36256;42.154;23.002;2022-10-16T00:54:30;97857.69;;;8.73;100.00
36630;BME280;36256;42.154;23.002;2022-10-16T00:57:00;97879.66;;;8.94;100.00
36630;BME280;36256;42.154;23.002;2022-10-16T00:59:29;97873.94;;;9.01;100.00
36630;BME280;36256;42.154;23.002;2022-10-16T01:01:56;97879.53;;;9.01;100.00
36630;BME280;36256;42.154;23.002;2022-10-16T01:04:24;97884.22;;;9.08;99.84
36630;BME280;36256;42.154;23.002;2022-10-16T01:12:15;97878.75;;;9.01;97.99
36630;BME280;36256;42.154;23.002;2022-10-16T01:14:54;97880.38;;;8.98;98.13
36630;BME280;36256;42.154;23.002;2022-10-16T01:20:34;97875.50;;;9.02;97.72
36630;BME280;36256;42.154;23.002;2022-10-16T01:28:04;97889.22;;;8.97;97.63
36630;BME280;36256;42.154;23.002;2022-10-16T01:30:33;97884.91;;;8.92;100.00
36630;BME280;36256;42.154;23.002;2022-10-16T01:33:14;97896.09;;;8.92;98.89
36630;BME280;36256;42.154;23.002;2022-10-16T01:35:47;97893.03;;;8.87;99.51
36630;BME280;36256;42.154;23.002;2022-10-16T01:38:33;97894.09;;;8.93;97.64
36630;BME280;36256;42.154;23.002;2022-10-16T01:41:06;97896.22;;;8.85;98.67
36630;BME280;36256;42.154;23.002;2022-10-16T01:43:37;97892.25;;;8.63;98.35
36630;BME280;36256;42.154;23.002;2022-10-16T01:46:08;97882.88;;;8.50;97.86
36630;BME280;36256;42.154;23.002;2022-10-16T01:48:37;97896.25;;;8.39;100.00
36630;BME280;36256;42.154;23.002;2022-10-16T01:51:10;97896.75;;;8.34;100.00
36630;BME280;36256;42.154;23.002;2022-10-16T01:53:39;97899.97;;;8.32;100.00
36630;BME280;36256;42.154;23.002;2022-10-16T01:56:09;97896.88;;;8.27;99.35
36630;BME280;36256;42.154;23.002;2022-10-16T01:58:44;97902.41;;;8.30;100.00
36630;BME280;36256;42.154;23.002;2022-10-16T02:01:13;97908.31;;;8.36;100.00
36630;BME280;36256;42.154;23.002;2022-10-16T02:03:49;97899.19;;;8.32;100.00
36630;BME280;36256;42.154;23.002;2022-10-16T02:06:18;97900.28;;;8.38;100.00
36630;BME280;36256;42.154;23.002;2022-10-16T02:08:46;97896.81;;;8.53;98.84
36630;BME280;36256;42.154;23.002;2022-10-16T02:11:12;97902.94;;;8.45;97.69
36630;BME280;36256;42.154;23.002;2022-10-16T02:13:45;97907.03;;;8.40;98.85
36630;BME280;36256;42.154;23.002;2022-10-16T02:16:14;97905.16;;;8.34;99.50
36630;BME280;36256;42.154;23.002;2022-10-16T02:18:42;97904.28;;;8.37;99.32
36630;BME280;36256;42.154;23.002;2022-10-16T02:21:21;97908.78;;;8.31;99.96
36630;BME280;36256;42.154;23.002;2022-10-16T02:24:03;97910.09;;;8.23;100.00
36630;BME280;36256;42.154;23.002;2022-10-16T02:26:43;97913.13;;;8.09;100.00
36630;BME280;36256;42.154;23.002;2022-10-16T02:29:22;97913.59;;;8.04;100.00
36630;BME280;36256;42.154;23.002;2022-10-16T02:31:57;97915.63;;;8.00;100.00
36630;BME280;36256;42.154;23.002;2022-10-16T02:34:27;97914.78;;;8.03;100.00
36630;BME280;36256;42.154;23.002;2022-10-16T02:36:56;97918.81;;;8.02;100.00
36630;BME280;36256;42.154;23.002;2022-10-16T02:39:23;97909.25;;;7.99;100.00
36630;BME280;36256;42.154;23.002;2022-10-16T02:41:50;97926.91;;;7.92;99.86
36630;BME280;36256;42.154;23.002;2022-10-16T02:44:17;97921.38;;;7.89;100.00
36630;BME280;36256;42.154;23.002;2022-10-16T02:46:43;97934.50;;;7.92;100.00
36630;BME280;36256;42.154;23.002;2022-10-16T02:49:10;97921.81;;;7.87;100.00
36630;BME280;36256;42.154;23.002;2022-10-16T02:51:37;97930.19;;;7.87;100.00
36630;BME280;36256;42.154;23.002;2022-10-16T02:54:04;97936.47;;;7.95;99.90
36630;BME280;36256;42.154;23.002;2022-10-16T02:56:30;97924.59;;;7.87;99.81
36630;BME280;36256;42.154;23.002;2022-10-16T02:58:57;97932.84;;;7.98;99.48
36630;BME280;36256;42.154;23.002;2022-10-16T03:01:24;97930.81;;;7.99;98.88
36630;BME280;36256;42.154;23.002;2022-10-16T03:03:51;97936.56;;;7.88;99.08
36630;BME280;36256;42.154;23.002;2022-10-16T03:06:17;97937.81;;;7.83;99.47
36630;BME280;36256;42.154;23.002;2022-10-16T03:08:44;97938.16;;;7.89;100.00
36630;BME280;36256;42.154;23.002;2022-10-16T03:11:10;97940.59;;;7.83;100.00
36630;BME280;36256;42.154;23.002;2022-10-16T03:13:37;97941.38;;;7.87;100.00
36630;BME280;36256;42.154;23.002;2022-10-16T03:16:04;97937.28;;;7.92;99.59
36630;BME280;36256;42.154;23.002;2022-10-16T03:18:30;97946.91;;;7.91;98.99
36630;BME280;36256;42.154;23.002;2022-10-16T03:20:57;97946.97;;;7.87;98.71
36630;BME280;36256;42.154;23.002;2022-10-16T03:23:23;97953.00;;;7.82;98.74
36630;BME280;36256;42.154;23.002;2022-10-16T03:25:50;97946.69;;;7.78;98.70
36630;BME280;36256;42.154;23.002;2022-10-16T03:28:16;97951.53;;;7.74;98.87
36630;BME280;36256;42.154;23.002;2022-10-16T03:30:43;97948.69;;;7.78;98.93
36630;BME280;36256;42.154;23.002;2022-10-16T03:33:10;97947.13;;;7.73;99.54
36630;BME280;36256;42.154;23.002;2022-10-16T03:35:37;97941.56;;;7.73;99.66
36630;BME280;36256;42.154;23.002;2022-10-16T03:38:04;97945.50;;;7.76;99.26
36630;BME280;36256;42.154;23.002;2022-10-16T03:40:30;97942.28;;;7.77;98.59
36630;BME280;36256;42.154;23.002;2022-10-16T03:42:59;97936.91;;;7.63;100.00
36630;BME280;36256;42.154;23.002;2022-10-16T03:45:25;97946.53;;;7.59;100.00
36630;BME280;36256;42.154;23.002;2022-10-16T04:04:17;97942.19;;;7.84;96.22
36630;BME280;36256;42.154;23.002;2022-10-16T04:06:44;97950.91;;;7.90;95.11
36630;BME280;36256;42.154;23.002;2022-10-16T04:09:10;97951.16;;;7.72;96.27
36630;BME280;36256;42.154;23.002;2022-10-16T04:11:37;97946.53;;;7.59;96.74
36630;BME280;36256;42.154;23.002;2022-10-16T04:14:04;97946.47;;;7.32;98.38
36630;BME280;36256;42.154;23.002;2022-10-16T04:16:30;97950.25;;;7.15;99.84
36630;BME280;36256;42.154;23.002;2022-10-16T04:18:57;97952.75;;;7.06;100.00
36630;BME280;36256;42.154;23.002;2022-10-16T04:21:23;97955.84;;;7.15;99.87
36630;BME280;36256;42.154;23.002;2022-10-16T04:23:50;97961.69;;;6.90;99.97
36630;BME280;36256;42.154;23.002;2022-10-16T04:26:17;97957.84;;;6.74;100.00
36630;BME280;36256;42.154;23.002;2022-10-16T04:28:43;97964.41;;;6.57;100.00
36630;BME280;36256;42.154;23.002;2022-10-16T04:31:10;97963.63;;;6.53;100.00
36630;BME280;36256;42.154;23.002;2022-10-16T04:33:36;97957.94;;;6.67;100.00
36630;BME280;36256;42.154;23.002;2022-10-16T04:36:03;97951.47;;;6.77;100.00
36630;BME280;36256;42.154;23.002;2022-10-16T04:38:30;97955.34;;;6.86;100.00
36630;BME280;36256;42.154;23.002;2022-10-16T04:40:57;97952.63;;;6.79;100.00
36630;BME280;36256;42.154;23.002;2022-10-16T04:43:23;97959.38;;;6.82;100.00
36630;BME280;36256;42.154;23.002;2022-10-16T04:45:50;97953.75;;;6.85;99.27
36630;BME280;36256;42.154;23.002;2022-10-16T04:48:18;97959.78;;;6.84;99.64
36630;BME280;36256;42.154;23.002;2022-10-16T04:50:44;97961.81;;;6.80;100.00
36630;BME280;36256;42.154;23.002;2022-10-16T04:53:11;97965.03;;;6.75;100.00
36630;BME280;36256;42.154;23.002;2022-10-16T04:55:37;97962.66;;;6.70;99.86
36630;BME280;36256;42.154;23.002;2022-10-16T04:58:05;97965.16;;;6.61;100.00
36630;BME280;36256;42.154;23.002;2022-10-16T05:00:31;97966.22;;;6.74;100.00
36630;BME280;36256;42.154;23.002;2022-10-16T05:02:58;97969.00;;;6.77;100.00
36630;BME280;36256;42.154;23.002;2022-10-16T05:05:27;97969.09;;;6.63;99.32
36630;BME280;36256;42.154;23.002;2022-10-16T05:07:54;97969.19;;;6.53;99.10
36630;BME280;36256;42.154;23.002;2022-10-16T05:10:20;97969.78;;;6.33;100.00
36630;BME280;36256;42.154;23.002;2022-10-16T05:12:47;97980.63;;;6.17;100.00
36630;BME280;36256;42.154;23.002;2022-10-16T05:15:14;97977.09;;;6.10;100.00
36630;BME280;36256;42.154;23.002;2022-10-16T05:17:40;97983.13;;;6.01;100.00
36630;BME280;36256;42.154;23.002;2022-10-16T05:20:11;97985.88;;;6.05;100.00
36630;BME280;36256;42.154;23.002;2022-10-16T05:22:38;97979.13;;;6.06;100.00
36630;BME280;36256;42.154;23.002;2022-10-16T05:25:05;97995.69;;;6.27;100.00
36630;BME280;36256;42.154;23.002;2022-10-16T05:27:32;97996.81;;;6.37;100.00
36630;BME280;36256;42.154;23.002;2022-10-16T05:29:58;97999.81;;;6.60;100.00
36630;BME280;36256;42.154;23.002;2022-10-16T05:32:25;98005.22;;;6.81;100.00
36630;BME280;36256;42.154;23.002;2022-10-16T05:34:51;98005.53;;;6.90;100.00
36630;BME280;36256;42.154;23.002;2022-10-16T05:37:18;98005.53;;;6.90;100.00
36630;BME280;36256;42.154;23.002;2022-10-16T05:39:45;98006.25;;;7.01;100.00
36630;BME280;36256;42.154;23.002;2022-10-16T05:42:11;98000.53;;;7.11;100.00
36630;BME280;36256;42.154;23.002;2022-10-16T05:44:38;98000.81;;;7.24;100.00
36630;BME280;36256;42.154;23.002;2022-10-16T05:47:04;98008.28;;;7.34;100.00
36630;BME280;36256;42.154;23.002;2022-10-16T05:49:31;98010.41;;;7.57;100.00
36630;BME280;36256;42.154;23.002;2022-10-16T05:51:57;98012.84;;;7.85;100.00
36630;BME280;36256;42.154;23.002;2022-10-16T05:54:24;98015.97;;;8.21;100.00
36630;BME280;36256;42.154;23.002;2022-10-16T05:56:50;98021.22;;;8.45;99.55
36630;BME280;36256;42.154;23.002;2022-10-16T05:59:17;98021.56;;;8.74;97.43
36630;BME280;36256;42.154;23.002;2022-10-16T06:01:44;98028.63;;;9.05;95.35
36630;BME280;36256;42.154;23.002;2022-10-16T06:04:10;98028.31;;;9.00;94.88
36630;BME280;36256;42.154;23.002;2022-10-16T06:06:42;98030.19;;;9.06;95.37
36630;BME280;36256;42.154;23.002;2022-10-16T06:09:09;98037.75;;;9.32;94.29
36630;BME280;36256;42.154;23.002;2022-10-16T06:11:36;98035.84;;;9.69;92.57
36630;BME280;36256;42.154;23.002;2022-10-16T06:14:03;98032.75;;;10.02;89.91
36630;BME280;36256;42.154;23.002;2022-10-16T06:16:35;98035.56;;;10.22;89.57
36630;BME280;36256;42.154;23.002;2022-10-16T06:19:02;98042.97;;;10.48;87.54
36630;BME280;36256;42.154;23.002;2022-10-16T06:21:32;98039.88;;;10.78;85.95
36630;BME280;36256;42.154;23.002;2022-10-16T06:23:59;98046.19;;;10.82;85.46
36630;BME280;36256;42.154;23.002;2022-10-16T06:26:27;98048.66;;;10.96;85.66
36630;BME280;36256;42.154;23.002;2022-10-16T06:28:56;98046.00;;;11.22;83.28
36630;BME280;36256;42.154;23.002;2022-10-16T06:31:23;98050.03;;;11.53;81.67
36630;BME280;36256;42.154;23.002;2022-10-16T06:33:55;98049.22;;;11.52;81.55
36630;BME280;36256;42.154;23.002;2022-10-16T06:36:23;98055.78;;;11.78;80.98
36630;BME280;36256;42.154;23.002;2022-10-16T06:38:49;98053.59;;;11.98;80.65
36630;BME280;36256;42.154;23.002;2022-10-16T06:41:18;98059.50;;;12.16;79.32
36630;BME280;36256;42.154;23.002;2022-10-16T06:43:45;98058.88;;;12.37;79.04
36630;BME280;36256;42.154;23.002;2022-10-16T06:46:14;98070.03;;;12.41;78.56
36630;BME280;36256;42.154;23.002;2022-10-16T06:48:41;98065.53;;;12.56;78.30
36630;BME280;36256;42.154;23.002;2022-10-16T06:51:13;98075.69;;;12.12;80.11
36630;BME280;36256;42.154;23.002;2022-10-16T06:53:44;98071.66;;;12.13;81.51
36630;BME280;36256;42.154;23.002;2022-10-16T06:56:28;98072.50;;;12.39;79.71
36630;BME280;36256;42.154;23.002;2022-10-16T06:58:59;98061.28;;;12.89;78.36
36630;BME280;36256;42.154;23.002;2022-10-16T07:01:27;98074.25;;;13.12;77.36
36630;BME280;36256;42.154;23.002;2022-10-16T07:03:54;98066.22;;;13.35;75.68
36630;BME280;36256;42.154;23.002;2022-10-16T07:06:22;98067.94;;;13.67;74.53
36630;BME280;36256;42.154;23.002;2022-10-16T07:08:49;98070.84;;;13.76;75.23
36630;BME280;36256;42.154;23.002;2022-10-16T07:11:19;98074.03;;;13.66;74.48
36630;BME280;36256;42.154;23.002;2022-10-16T07:13:47;98076.84;;;14.22;72.78
36630;BME280;36256;42.154;23.002;2022-10-16T07:16:27;98075.91;;;14.68;70.31
36630;BME280;36256;42.154;23.002;2022-10-16T07:18:56;98077.66;;;15.05;68.46
36630;BME280;36256;42.154;23.002;2022-10-16T07:21:31;98071.00;;;14.90;70.38
36630;BME280;36256;42.154;23.002;2022-10-16T07:24:04;98078.03;;;15.16;68.06
36630;BME280;36256;42.154;23.002;2022-10-16T07:26:33;98076.19;;;15.40;66.20
36630;BME280;36256;42.154;23.002;2022-10-16T07:29:00;98071.81;;;15.39;65.48
36630;BME280;36256;42.154;23.002;2022-10-16T07:31:28;98069.38;;;15.20;67.33
36630;BME280;36256;42.154;23.002;2022-10-16T07:33:54;98075.16;;;15.65;66.55
36630;BME280;36256;42.154;23.002;2022-10-16T07:36:21;98076.44;;;15.91;64.83
36630;BME280;36256;42.154;23.002;2022-10-16T07:38:48;98073.63;;;15.91;65.32
36630;BME280;36256;42.154;23.002;2022-10-16T07:41:19;98077.56;;;16.03;63.99
36630;BME280;36256;42.154;23.002;2022-10-16T07:43:47;98076.75;;;16.20;62.36
36630;BME280;36256;42.154;23.002;2022-10-16T07:46:15;98080.53;;;15.99;62.81
36630;BME280;36256;42.154;23.002;2022-10-16T07:48:43;98077.84;;;16.14;62.17
36630;BME280;36256;42.154;23.002;2022-10-16T07:51:14;98070.16;;;16.14;61.83
36630;BME280;36256;42.154;23.002;2022-10-16T07:53:41;98071.91;;;15.94;63.87
36630;BME280;36256;42.154;23.002;2022-10-16T07:56:08;98069.06;;;16.21;62.48
36630;BME280;36256;42.154;23.002;2022-10-16T07:58:35;98065.09;;;16.64;61.65
36630;BME280;36256;42.154;23.002;2022-10-16T08:01:06;98061.97;;;16.94;60.16
36630;BME280;36256;42.154;23.002;2022-10-16T08:03:34;98046.72;;;17.24;60.00
36630;BME280;36256;42.154;23.002;2022-10-16T08:06:01;98060.16;;;17.48;58.59
36630;BME280;36256;42.154;23.002;2022-10-16T08:08:28;98052.06;;;17.79;58.22
36630;BME280;36256;42.154;23.002;2022-10-16T08:10:55;98046.09;;;18.15;56.59
36630;BME280;36256;42.154;23.002;2022-10-16T08:13:22;98039.72;;;18.73;55.56
36630;BME280;36256;42.154;23.002;2022-10-16T08:15:49;98040.91;;;18.66;55.45
36630;BME280;36256;42.154;23.002;2022-10-16T08:18:16;98045.00;;;18.65;55.37
36630;BME280;36256;42.154;23.002;2022-10-16T08:20:43;98046.88;;;18.83;54.76
36630;BME280;36256;42.154;23.002;2022-10-16T08:23:11;98037.91;;;19.05;54.24
36630;BME280;36256;42.154;23.002;2022-10-16T08:25:39;98034.47;;;19.50;52.36
36630;BME280;36256;42.154;23.002;2022-10-16T08:28:08;98035.03;;;19.54;53.25
36630;BME280;36256;42.154;23.002;2022-10-16T08:30:35;98033.91;;;19.46;53.26
36630;BME280;36256;42.154;23.002;2022-10-16T08:33:02;98028.22;;;19.31;52.20
36630;BME280;36256;42.154;23.002;2022-10-16T08:35:29;98036.09;;;19.36;53.52
36630;BME280;36256;42.154;23.002;2022-10-16T08:37:55;98031.16;;;19.72;51.39
36630;BME280;36256;42.154;23.002;2022-10-16T08:48:54;98015.53;;;22.11;46.71
36630;BME280;36256;42.154;23.002;2022-10-16T08:51:26;98011.28;;;23.04;44.91
36630;BME280;36256;42.154;23.002;2022-10-16T08:56:23;98009.22;;;24.17;42.24
36630;BME280;36256;42.154;23.002;2022-10-16T08:58:52;98012.91;;;24.07;43.35
36630;BME280;36256;42.154;23.002;2022-10-16T09:01:37;98024.50;;;24.77;40.41
36630;BME280;36256;42.154;23.002;2022-10-16T09:06:50;98026.56;;;24.82;40.75
36630;BME280;36256;42.154;23.002;2022-10-16T09:12:46;98017.91;;;24.47;40.65
36630;BME280;36256;42.154;23.002;2022-10-16T09:15:52;98020.66;;;24.23;41.15
36630;BME280;36256;42.154;23.002;2022-10-16T09:18:32;98021.34;;;23.72;43.60
36630;BME280;36256;42.154;23.002;2022-10-16T09:23:38;98027.09;;;21.80;44.86
36630;BME280;36256;42.154;23.002;2022-10-16T09:26:12;98009.88;;;21.63;46.94
36630;BME280;36256;42.154;23.002;2022-10-16T09:28:40;98014.22;;;21.11;47.58
36630;BME280;36256;42.154;23.002;2022-10-16T09:31:25;98023.38;;;20.64;47.37
36630;BME280;36256;42.154;23.002;2022-10-16T09:33:54;98022.50;;;20.52;50.11
36630;BME280;36256;42.154;23.002;2022-10-16T09:36:23;98014.53;;;20.10;48.25
36630;BME280;36256;42.154;23.002;2022-10-16T09:38:50;98012.81;;;19.98;49.97
36630;BME280;36256;42.154;23.002;2022-10-16T09:41:19;98004.34;;;20.04;49.95
36630;BME280;36256;42.154;23.002;2022-10-16T09:43:53;98013.94;;;20.06;49.77
36630;BME280;36256;42.154;23.002;2022-10-16T09:48:58;98008.22;;;19.81;50.81
36630;BME280;36256;42.154;23.002;2022-10-16T09:51:28;97993.91;;;19.75;49.38
36630;BME280;36256;42.154;23.002;2022-10-16T09:54:00;97994.34;;;19.68;49.52
36630;BME280;36256;42.154;23.002;2022-10-16T09:56:33;97999.59;;;19.75;52.29
36630;BME280;36256;42.154;23.002;2022-10-16T09:59:28;97994.59;;;19.90;53.88
36630;BME280;36256;42.154;23.002;2022-10-16T10:02:01;97994.13;;;20.17;49.84
36630;BME280;36256;42.154;23.002;2022-10-16T10:04:59;97996.50;;;20.45;48.66
36630;BME280;36256;42.154;23.002;2022-10-16T10:07:31;97983.16;;;20.30;48.04
36630;BME280;36256;42.154;23.002;2022-10-16T10:10:04;97981.09;;;20.11;49.93
36630;BME280;36256;42.154;23.002;2022-10-16T10:12:32;97983.41;;;20.27;52.67
36630;BME280;36256;42.154;23.002;2022-10-16T10:15:07;97973.69;;;20.45;47.38
36630;BME280;36256;42.154;23.002;2022-10-16T10:17:50;97962.22;;;20.65;48.45
36630;BME280;36256;42.154;23.002;2022-10-16T10:22:49;97954.34;;;20.85;49.29
36630;BME280;36256;42.154;23.002;2022-10-16T10:25:25;97952.63;;;20.99;50.76
36630;BME280;36256;42.154;23.002;2022-10-16T10:28:21;97948.66;;;21.22;50.38
36630;BME280;36256;42.154;23.002;2022-10-16T10:36:22;97942.53;;;21.40;46.38
36630;BME280;36256;42.154;23.002;2022-10-16T10:39:00;97935.22;;;21.34;46.95
36630;BME280;36256;42.154;23.002;2022-10-16T10:44:41;97928.44;;;21.31;46.53
36630;BME280;36256;42.154;23.002;2022-10-16T10:47:18;97929.75;;;21.30;48.01
36630;BME280;36256;42.154;23.002;2022-10-16T11:11:41;97890.81;;;21.92;46.47
36630;BME280;36256;42.154;23.002;2022-10-16T11:17:31;97880.41;;;21.88;46.80
36630;BME280;36256;42.154;23.002;2022-10-16T11:20:11;97884.56;;;21.88;47.03
36630;BME280;36256;42.154;23.002;2022-10-16T11:22:47;97878.84;;;21.88;46.23
36630;BME280;36256;42.154;23.002;2022-10-16T11:25:23;97873.91;;;21.82;44.41
36630;BME280;36256;42.154;23.002;2022-10-16T11:30:38;97855.69;;;21.80;45.69
36630;BME280;36256;42.154;23.002;2022-10-16T11:35:43;97865.91;;;22.09;44.60
36630;BME280;36256;42.154;23.002;2022-10-16T11:41:15;97871.34;;;22.29;44.98
36630;BME280;36256;42.154;23.002;2022-10-16T11:46:40;97852.41;;;22.26;43.04
36630;BME280;36256;42.154;23.002;2022-10-16T11:49:26;97852.91;;;22.19;43.88
36630;BME280;36256;42.154;23.002;2022-10-16T11:52:07;97851.63;;;22.36;43.98
36630;BME280;36256;42.154;23.002;2022-10-16T11:54:56;97848.22;;;22.49;42.94
36630;BME280;36256;42.154;23.002;2022-10-16T11:57:34;97823.03;;;22.36;41.01
36630;BME280;36256;42.154;23.002;2022-10-16T12:00:08;97843.03;;;22.53;39.58
36630;BME280;36256;42.154;23.002;2022-10-16T12:05:11;97832.59;;;22.50;41.59
36630;BME280;36256;42.154;23.002;2022-10-16T12:10:25;97838.84;;;22.48;42.80
36630;BME280;36256;42.154;23.002;2022-10-16T12:12:53;97838.84;;;22.54;42.43
36630;BME280;36256;42.154;23.002;2022-10-16T12:18:00;97836.03;;;22.59;41.06
36630;BME280;36256;42.154;23.002;2022-10-16T12:23:00;97834.69;;;22.55;38.91
36630;BME280;36256;42.154;23.002;2022-10-16T12:25:29;97835.72;;;22.52;40.03
36630;BME280;36256;42.154;23.002;2022-10-16T12:30:41;97837.81;;;22.46;42.21
36630;BME280;36256;42.154;23.002;2022-10-16T12:35:50;97832.09;;;22.46;41.38
36630;BME280;36256;42.154;23.002;2022-10-16T12:40:55;97841.44;;;22.52;40.55
36630;BME280;36256;42.154;23.002;2022-10-16T12:43:40;97836.00;;;22.48;40.34
36630;BME280;36256;42.154;23.002;2022-10-16T12:48:38;97833.91;;;22.43;41.16
36630;BME280;36256;42.154;23.002;2022-10-16T12:54:00;97826.88;;;22.50;39.52
36630;BME280;36256;42.154;23.002;2022-10-16T12:59:46;97822.47;;;22.54;38.65
36630;BME280;36256;42.154;23.002;2022-10-16T13:14:15;97834.72;;;22.38;38.19
36630;BME280;36256;42.154;23.002;2022-10-16T13:28:15;97824.31;;;22.08;39.56
36630;BME280;36256;42.154;23.002;2022-10-16T13:30:55;97832.88;;;22.08;39.92
36630;BME280;36256;42.154;23.002;2022-10-16T13:33:37;97829.50;;;22.20;38.56
36630;BME280;36256;42.154;23.002;2022-10-16T13:36:05;97826.13;;;22.16;39.87
36630;BME280;36256;42.154;23.002;2022-10-16T13:38:34;97831.59;;;21.98;40.31
36630;BME280;36256;42.154;23.002;2022-10-16T13:41:04;97825.84;;;21.86;40.63
36630;BME280;36256;42.154;23.002;2022-10-16T13:43:37;97822.50;;;21.94;38.93
36630;BME280;36256;42.154;23.002;2022-10-16T13:46:14;97824.28;;;21.97;40.47
36630;BME280;36256;42.154;23.002;2022-10-16T13:48:41;97835.19;;;21.93;39.87
36630;BME280;36256;42.154;23.002;2022-10-16T13:51:16;97837.81;;;21.85;41.10
36630;BME280;36256;42.154;23.002;2022-10-16T13:53:44;97839.31;;;21.80;40.83
36630;BME280;36256;42.154;23.002;2022-10-16T13:56:19;97829.97;;;21.74;40.78
36630;BME280;36256;42.154;23.002;2022-10-16T13:58:58;97827.06;;;21.58;41.79
36630;BME280;36256;42.154;23.002;2022-10-16T14:01:28;97828.09;;;21.49;39.82
36630;BME280;36256;42.154;23.002;2022-10-16T14:04:04;97827.56;;;21.56;41.09
36630;BME280;36256;42.154;23.002;2022-10-16T14:06:32;97822.69;;;21.62;40.69
36630;BME280;36256;42.154;23.002;2022-10-16T14:09:06;97831.50;;;21.64;40.17
36630;BME280;36256;42.154;23.002;2022-10-16T14:11:38;97821.06;;;21.50;40.52
36630;BME280;36256;42.154;23.002;2022-10-16T14:14:05;97820.00;;;21.42;40.76
36630;BME280;36256;42.154;23.002;2022-10-16T14:16:32;97816.09;;;21.40;40.87
36630;BME280;36256;42.154;23.002;2022-10-16T14:19:04;97822.03;;;21.25;40.62
36630;BME280;36256;42.154;23.002;2022-10-16T14:21:33;97829.25;;;21.15;41.08
36630;BME280;36256;42.154;23.002;2022-10-16T14:24:14;97833.97;;;21.18;40.90
36630;BME280;36256;42.154;23.002;2022-10-16T14:26:50;97838.09;;;21.17;41.55
36630;BME280;36256;42.154;23.002;2022-10-16T14:29:18;97844.59;;;21.18;41.91
36630;BME280;36256;42.154;23.002;2022-10-16T14:32:00;97853.09;;;21.12;42.98
36630;BME280;36256;42.154;23.002;2022-10-16T14:34:28;97860.28;;;21.02;43.76
36630;BME280;36256;42.154;23.002;2022-10-16T14:36:59;97852.50;;;20.97;42.51
36630;BME280;36256;42.154;23.002;2022-10-16T14:39:27;97850.91;;;20.90;42.62
36630;BME280;36256;42.154;23.002;2022-10-16T14:41:57;97856.56;;;20.85;42.82
36630;BME280;36256;42.154;23.002;2022-10-16T14:44:29;97859.56;;;20.65;45.13
36630;BME280;36256;42.154;23.002;2022-10-16T14:46:57;97864.72;;;20.61;45.01
36630;BME280;36256;42.154;23.002;2022-10-16T14:49:26;97866.94;;;20.46;47.25
36630;BME280;36256;42.154;23.002;2022-10-16T14:51:54;97870.63;;;20.20;44.92
36630;BME280;36256;42.154;23.002;2022-10-16T14:54:21;97874.13;;;20.10;46.64
36630;BME280;36256;42.154;23.002;2022-10-16T14:56:50;97879.75;;;20.04;45.29
36630;BME280;36256;42.154;23.002;2022-10-16T14:59:36;97879.06;;;19.84;45.03
36630;BME280;36256;42.154;23.002;2022-10-16T15:02:26;97884.75;;;19.84;45.97
36630;BME280;36256;42.154;23.002;2022-10-16T15:04:54;97886.25;;;19.79;48.33
36630;BME280;36256;42.154;23.002;2022-10-16T15:07:21;97887.13;;;19.65;46.32
36630;BME280;36256;42.154;23.002;2022-10-16T15:09:47;97889.44;;;19.61;47.59
36630;BME280;36256;42.154;23.002;2022-10-16T15:12:15;97878.19;;;19.52;45.87
36630;BME280;36256;42.154;23.002;2022-10-16T15:14:42;97882.44;;;19.62;41.52
36630;BME280;36256;42.154;23.002;2022-10-16T15:17:10;97883.47;;;19.59;42.85
36630;BME280;36256;42.154;23.002;2022-10-16T15:19:37;97882.91;;;19.55;42.33
36630;BME280;36256;42.154;23.002;2022-10-16T15:22:04;97890.13;;;19.56;44.10
36630;BME280;36256;42.154;23.002;2022-10-16T15:24:31;97891.34;;;19.49;47.73
36630;BME280;36256;42.154;23.002;2022-10-16T15:26:57;97901.88;;;19.23;49.41
36630;BME280;36256;42.154;23.002;2022-10-16T15:29:24;97909.19;;;19.10;46.47
36630;BME280;36256;42.154;23.002;2022-10-16T15:31:51;97914.16;;;18.95;47.66
36630;BME280;36256;42.154;23.002;2022-10-16T15:34:17;97914.69;;;18.78;46.71
36630;BME280;36256;42.154;23.002;2022-10-16T15:36:45;97912.84;;;18.75;47.66
36630;BME280;36256;42.154;23.002;2022-10-16T15:39:14;97911.09;;;18.63;47.89